Alder, Montana
Current Conditions -  °F | °C
As of 7:53 AM on Friday 28 Nov 2014 (Local Time) from KDLN Reporting Station
Broken Clouds Broken Clouds  
Wind Chill: 36°   Ceiling: 10000
Heat Index: 42°   Visibility: 10mi
Dew Point: 27°   Wind: 10mph
Humidity: 55%   Direction: 140°SE
Pressure: 29.75"   Gusts: NA
Location:  45.32°N, 112.11°W
Report Text: KDLN 281453Z AUTO 14009KT 10SM BKN100 06/M03 A2975 RMK AO2 SLP062 T00561028 55010
Loading
Personal Weather Stations






























Interactive Weather Map New forecast layout! Learn more

10-Day Weather Forecast

Advertisements
Track Severe Weather on mobile